createdAt,value
2024-04-08T00:01:37.970Z,15.57
2024-04-08T00:04:05.117Z,18.85
2024-04-08T00:06:31.827Z,13.77
2024-04-08T00:08:59.267Z,16.92
2024-04-08T00:11:26.059Z,18.85
2024-04-08T00:13:52.913Z,25.60
2024-04-08T00:16:19.842Z,16.80
2024-04-08T00:18:46.624Z,15.73
2024-04-08T00:21:13.354Z,16.88
2024-04-08T00:23:40.334Z,15.30
2024-04-08T00:26:07.347Z,16.00
2024-04-08T00:28:38.888Z,14.50
2024-04-08T00:31:07.797Z,16.58
2024-04-08T00:33:35.654Z,18.58
2024-04-08T00:36:05.566Z,16.92
2024-04-08T00:38:32.562Z,19.58
2024-04-08T00:41:04.075Z,14.70
2024-04-08T00:43:31.333Z,16.02
2024-04-08T00:46:00.795Z,15.73
2024-04-08T00:48:27.984Z,18.58
2024-04-08T00:50:55.453Z,13.65
2024-04-08T00:53:23.696Z,18.60
2024-04-08T00:55:52.863Z,17.08
2024-04-08T00:58:20.081Z,18.13
2024-04-08T01:00:46.998Z,20.88
2024-04-08T01:03:14.154Z,15.00
2024-04-08T01:05:42.103Z,16.98
2024-04-08T01:08:09.282Z,17.20
2024-04-08T01:10:36.493Z,19.02
2024-04-08T01:13:03.192Z,17.45
2024-04-08T01:15:30.356Z,17.88
2024-04-08T01:17:57.487Z,17.48
2024-04-08T01:20:24.259Z,17.35
2024-04-08T01:22:55.259Z,17.55
2024-04-08T01:25:22.076Z,14.68
2024-04-08T01:27:48.977Z,16.42
2024-04-08T01:30:22.734Z,19.17
2024-04-08T01:32:50.142Z,17.45
2024-04-08T01:35:17.061Z,18.20
2024-04-08T01:37:43.941Z,15.05
2024-04-08T01:40:11.009Z,18.45
2024-04-08T01:42:37.754Z,18.05
2024-04-08T01:45:04.824Z,14.82
2024-04-08T01:47:31.668Z,16.27
2024-04-08T01:49:58.512Z,16.15
2024-04-08T01:52:25.477Z,17.63
2024-04-08T01:54:52.217Z,15.43
2024-04-08T01:57:18.935Z,15.70
2024-04-08T01:59:45.979Z,21.20
2024-04-08T02:02:12.765Z,15.48
2024-04-08T02:04:39.495Z,16.70
2024-04-08T02:07:06.244Z,15.77
2024-04-08T02:09:32.925Z,14.68
2024-04-08T02:11:59.981Z,14.63
2024-04-08T02:14:26.991Z,17.40
2024-04-08T02:16:53.686Z,16.95
2024-04-08T02:19:20.409Z,17.92
2024-04-08T02:21:47.364Z,19.08
2024-04-08T02:24:14.805Z,18.10
2024-04-08T02:26:41.590Z,17.23
2024-04-08T02:29:08.474Z,15.82
2024-04-08T02:31:35.170Z,16.58
2024-04-08T02:34:01.936Z,16.27
2024-04-08T02:36:29.570Z,13.65
2024-04-08T02:38:56.371Z,14.90
2024-04-08T02:41:23.156Z,15.07
2024-04-08T02:43:50.205Z,16.65
2024-04-08T02:46:16.861Z,13.93
2024-04-08T02:48:43.550Z,15.52
2024-04-08T02:51:11.009Z,15.45
2024-04-08T02:53:38.097Z,14.80
2024-04-08T02:56:08.351Z,15.30
2024-04-08T02:58:35.261Z,15.02
2024-04-08T03:01:13.542Z,15.18
2024-04-08T03:03:40.739Z,13.50
2024-04-08T03:06:17.110Z,15.43
2024-04-08T03:08:44.596Z,16.30
2024-04-08T03:11:11.599Z,15.20
2024-04-08T03:13:40.407Z,14.85
2024-04-08T03:16:07.638Z,16.45
2024-04-08T03:18:34.380Z,15.68
2024-04-08T03:21:03.357Z,15.15
2024-04-08T03:23:31.454Z,12.80
2024-04-08T03:26:02.474Z,14.88
2024-04-08T03:28:29.782Z,14.27
2024-04-08T03:30:57.888Z,15.30
2024-04-08T03:33:27.931Z,18.45
2024-04-08T03:35:54.897Z,16.77
2024-04-08T03:38:21.711Z,16.98
2024-04-08T03:40:59.166Z,15.98
2024-04-08T03:43:26.056Z,17.02
2024-04-08T03:45:52.778Z,17.08
2024-04-08T03:48:19.468Z,15.65
2024-04-08T03:50:46.508Z,16.02
2024-04-08T03:53:13.642Z,14.90
2024-04-08T03:55:41.046Z,16.75
2024-04-08T03:58:09.146Z,17.40
2024-04-08T04:00:35.960Z,15.52
2024-04-08T04:03:02.702Z,15.15
2024-04-08T04:05:29.584Z,14.30
2024-04-08T04:07:57.809Z,16.52
2024-04-08T04:10:24.597Z,15.73
2024-04-08T04:12:51.453Z,15.32
2024-04-08T04:15:18.349Z,18.35
2024-04-08T04:17:45.225Z,17.10
2024-04-08T04:20:15.804Z,13.20
2024-04-08T04:25:09.558Z,13.43
2024-04-08T04:27:36.464Z,13.98
2024-04-08T04:30:03.978Z,18.17
2024-04-08T04:32:30.703Z,15.18
2024-04-08T04:34:57.539Z,14.38
2024-04-08T04:37:24.244Z,14.75
2024-04-08T04:39:50.965Z,15.40
2024-04-08T04:42:18.583Z,17.25
2024-04-08T04:44:45.427Z,15.38
2024-04-08T04:47:12.203Z,16.70
2024-04-08T04:49:38.908Z,16.05
2024-04-08T04:52:06.096Z,14.82
2024-04-08T04:54:33.737Z,17.35
2024-04-08T04:57:00.651Z,14.82
2024-04-08T04:59:27.430Z,15.40
2024-04-08T05:01:54.161Z,16.70
2024-04-08T05:04:21.052Z,20.38
2024-04-08T05:06:47.758Z,15.90
2024-04-08T05:09:14.582Z,17.35
2024-04-08T05:11:41.665Z,16.73
2024-04-08T05:14:08.480Z,18.30
2024-04-08T05:16:35.220Z,15.23
2024-04-08T05:19:02.303Z,17.85
2024-04-08T05:21:29.335Z,16.38
2024-04-08T05:23:56.467Z,15.88
2024-04-08T05:26:23.505Z,16.98
2024-04-08T05:28:51.016Z,17.25
2024-04-08T05:31:17.785Z,16.90
2024-04-08T05:33:44.827Z,16.60
2024-04-08T05:36:11.541Z,17.30
2024-04-08T05:38:38.299Z,16.20
2024-04-08T05:41:05.271Z,18.17
2024-04-08T05:43:34.833Z,18.10
2024-04-08T05:46:01.643Z,16.83
2024-04-08T05:48:28.463Z,18.52
2024-04-08T05:50:55.273Z,15.15
2024-04-08T05:53:22.087Z,17.23
2024-04-08T05:55:49.013Z,16.42
2024-04-08T05:58:15.799Z,15.43
2024-04-08T06:00:42.810Z,19.17
2024-04-08T06:03:10.167Z,17.77
2024-04-08T06:05:42.090Z,18.10
2024-04-08T06:08:08.914Z,17.65
2024-04-08T06:10:37.557Z,18.88
2024-04-08T06:13:04.906Z,18.50
2024-04-08T06:15:33.360Z,16.45
2024-04-08T06:18:00.555Z,15.05
2024-04-08T06:20:28.529Z,15.60
2024-04-08T06:22:56.033Z,16.67
2024-04-08T06:25:23.086Z,15.60
2024-04-08T06:27:49.928Z,17.75
2024-04-08T06:30:16.910Z,14.00
2024-04-08T06:32:48.470Z,15.80
2024-04-08T06:35:15.304Z,17.63
2024-04-08T06:37:42.087Z,18.00
2024-04-08T06:40:10.703Z,18.05
2024-04-08T06:42:37.467Z,18.08
2024-04-08T06:45:04.601Z,14.48
2024-04-08T06:47:31.588Z,16.83
2024-04-08T06:49:58.326Z,18.50
2024-04-08T06:52:25.628Z,15.30
2024-04-08T06:54:52.677Z,17.58
2024-04-08T06:57:19.710Z,18.88
2024-04-08T06:59:46.702Z,15.40
2024-04-08T07:02:13.870Z,16.15
2024-04-08T07:04:40.578Z,17.20
2024-04-08T07:07:07.465Z,16.15
2024-04-08T07:09:34.485Z,15.95
2024-04-08T07:12:02.732Z,15.32
2024-04-08T07:14:29.811Z,16.05
2024-04-08T07:16:56.851Z,16.90
2024-04-08T07:19:23.732Z,16.70
2024-04-08T07:21:53.342Z,17.38
2024-04-08T07:24:22.071Z,15.48
2024-04-08T07:26:49.229Z,17.00
2024-04-08T07:29:16.603Z,15.77
2024-04-08T07:31:43.561Z,15.73
2024-04-08T07:34:10.372Z,15.60
2024-04-08T07:36:37.198Z,15.90
2024-04-08T07:39:04.425Z,16.27
2024-04-08T07:41:31.429Z,17.52
2024-04-08T07:43:58.212Z,17.80
2024-04-08T07:46:25.365Z,21.35
2024-04-08T07:48:52.147Z,15.43
2024-04-08T07:51:18.914Z,16.52
2024-04-08T07:53:46.140Z,17.25
2024-04-08T07:56:13.090Z,18.02
2024-04-08T07:58:40.029Z,17.42
2024-04-08T08:01:09.052Z,17.20
2024-04-08T08:03:36.081Z,18.67
2024-04-08T08:06:06.221Z,18.05
2024-04-08T08:08:35.308Z,16.40
2024-04-08T08:11:05.991Z,15.57
2024-04-08T08:16:01.684Z,18.33
2024-04-08T08:18:29.119Z,17.73
2024-04-08T08:20:56.845Z,16.67
2024-04-08T08:23:23.950Z,15.65
2024-04-08T08:25:51.067Z,16.48
2024-04-08T08:28:17.826Z,16.98
2024-04-08T08:30:44.827Z,17.42
2024-04-08T08:33:11.898Z,16.02
2024-04-08T08:35:39.328Z,17.02
2024-04-08T08:38:06.276Z,14.70
2024-04-08T08:40:38.963Z,16.92
2024-04-08T08:43:06.655Z,15.38
2024-04-08T08:45:34.835Z,16.40
2024-04-08T08:48:01.864Z,16.75
2024-04-08T08:50:29.957Z,17.05
2024-04-08T08:52:57.132Z,16.42
2024-04-08T08:55:26.204Z,18.20
2024-04-08T08:57:54.921Z,15.90
2024-04-08T09:00:21.754Z,17.23
2024-04-08T09:02:49.834Z,17.48
2024-04-08T09:05:16.670Z,16.58
2024-04-08T09:07:43.525Z,18.75
2024-04-08T09:10:10.439Z,16.20
2024-04-08T09:12:42.848Z,17.30
2024-04-08T09:15:13.699Z,16.67
2024-04-08T09:17:40.604Z,17.25
2024-04-08T09:20:08.260Z,17.38
2024-04-08T09:22:36.575Z,16.33
2024-04-08T09:25:03.480Z,18.65
2024-04-08T09:27:30.353Z,19.23
2024-04-08T09:29:57.244Z,17.40
2024-04-08T09:32:24.340Z,17.77
2024-04-08T09:34:51.081Z,18.42
2024-04-08T09:37:21.707Z,17.90
2024-04-08T09:42:17.677Z,18.20
2024-04-08T09:44:46.166Z,17.02
2024-04-08T09:47:14.226Z,16.10
2024-04-08T09:49:48.131Z,19.70
2024-04-08T09:52:17.799Z,19.20
2024-04-08T09:54:44.708Z,18.40
2024-04-08T09:57:16.922Z,17.85
2024-04-08T09:59:46.835Z,16.23
2024-04-08T10:02:19.287Z,14.65
2024-04-08T10:04:54.269Z,17.45
2024-04-08T10:07:21.246Z,16.65
2024-04-08T10:09:48.149Z,16.42
2024-04-08T10:12:14.991Z,17.25
2024-04-08T10:14:42.314Z,15.38
2024-04-08T10:17:10.238Z,16.02
2024-04-08T10:19:37.241Z,15.00
2024-04-08T10:22:04.149Z,17.27
2024-04-08T10:24:40.493Z,16.45
2024-04-08T10:27:10.037Z,17.30
2024-04-08T10:29:37.444Z,15.73
2024-04-08T10:32:05.454Z,17.48
2024-04-08T10:34:35.329Z,15.10
2024-04-08T10:37:02.586Z,16.10
2024-04-08T10:39:29.965Z,14.15
2024-04-08T10:41:59.607Z,14.10
2024-04-08T10:44:33.068Z,14.50
2024-04-08T10:47:00.497Z,14.23
2024-04-08T10:49:27.771Z,14.18
2024-04-08T10:51:56.806Z,15.55
2024-04-08T10:54:23.729Z,13.98
2024-04-08T10:56:51.103Z,14.38
2024-04-08T10:59:17.869Z,14.45
2024-04-08T11:01:45.464Z,12.77
2024-04-08T11:04:13.621Z,11.57
2024-04-08T11:06:41.006Z,16.33
2024-04-08T11:09:08.151Z,10.65
2024-04-08T11:11:34.903Z,14.65
2024-04-08T11:14:05.740Z,11.18
2024-04-08T11:16:34.033Z,13.55
2024-04-08T11:19:02.356Z,13.48
2024-04-08T11:21:29.496Z,15.15
2024-04-08T11:23:56.455Z,13.48
2024-04-08T11:26:23.946Z,13.32
2024-04-08T11:28:50.759Z,14.50
2024-04-08T11:31:17.582Z,12.45
2024-04-08T11:33:44.526Z,12.80
2024-04-08T11:36:11.469Z,13.50
2024-04-08T11:38:42.765Z,11.20
2024-04-08T11:41:09.725Z,12.00
2024-04-08T11:43:36.735Z,13.15
2024-04-08T11:46:05.092Z,12.70
2024-04-08T11:48:32.882Z,11.70
2024-04-08T11:50:59.978Z,11.88
2024-04-08T11:53:27.030Z,12.45
2024-04-08T11:55:53.956Z,9.55
2024-04-08T11:58:20.691Z,10.77
2024-04-08T12:00:47.758Z,9.80
2024-04-08T12:03:14.844Z,10.55
2024-04-08T12:05:42.314Z,10.98
2024-04-08T12:08:09.540Z,8.05
2024-04-08T12:10:36.588Z,12.63
2024-04-08T12:13:29.477Z,9.18
2024-04-08T12:15:56.304Z,9.82
2024-04-08T12:18:23.120Z,6.75
2024-04-08T12:20:50.130Z,11.48
2024-04-08T12:23:17.036Z,13.23
2024-04-08T12:25:44.304Z,8.75
2024-04-08T12:28:11.166Z,11.88
2024-04-08T12:30:38.982Z,10.30
2024-04-08T12:33:05.866Z,11.77
2024-04-08T12:35:32.802Z,8.63
2024-04-08T12:38:00.805Z,10.68
2024-04-08T12:40:27.965Z,11.38
2024-04-08T12:42:54.725Z,9.85
2024-04-08T12:45:22.280Z,9.80
2024-04-08T12:47:49.372Z,8.45
2024-04-08T12:50:16.385Z,9.30
2024-04-08T12:52:43.337Z,14.40
2024-04-08T12:55:10.620Z,8.57
2024-04-08T12:57:37.761Z,10.48
2024-04-08T13:00:10.411Z,9.32
2024-04-08T13:02:40.555Z,9.05
2024-04-08T13:05:07.651Z,11.10
2024-04-08T13:07:34.857Z,9.25
2024-04-08T13:10:01.750Z,12.25
2024-04-08T13:12:29.387Z,9.65
2024-04-08T13:14:56.173Z,9.60
2024-04-08T13:17:23.919Z,10.07
2024-04-08T13:19:50.846Z,12.40
2024-04-08T13:22:17.575Z,9.75
2024-04-08T13:24:44.528Z,6.63
2024-04-08T13:27:11.507Z,9.43
2024-04-08T13:29:38.295Z,8.18
2024-04-08T13:32:05.635Z,9.02
2024-04-08T13:34:32.712Z,9.13
2024-04-08T13:37:01.229Z,10.02
2024-04-08T13:39:28.249Z,6.65
2024-04-08T13:41:55.156Z,10.20
2024-04-08T13:44:22.223Z,6.10
2024-04-08T13:46:49.265Z,10.40
2024-04-08T13:49:16.350Z,8.65
2024-04-08T13:51:43.075Z,8.82
2024-04-08T13:54:10.126Z,7.65
2024-04-08T13:56:37.590Z,9.63
2024-04-08T13:59:04.350Z,9.20
2024-04-08T14:01:31.583Z,8.18
2024-04-08T14:04:00.133Z,7.13
2024-04-08T14:06:27.939Z,10.57
2024-04-08T14:08:55.022Z,7.15
2024-04-08T14:11:22.344Z,8.98
2024-04-08T14:13:49.307Z,10.65
2024-04-08T14:16:16.372Z,8.80
2024-04-08T14:18:43.497Z,9.48
2024-04-08T14:21:11.051Z,8.13
2024-04-08T14:23:38.112Z,12.20
2024-04-08T14:26:05.102Z,10.45
2024-04-08T14:28:32.057Z,7.75
2024-04-08T14:30:59.122Z,10.63
2024-04-08T14:33:26.325Z,9.63
2024-04-08T14:35:53.716Z,10.48
2024-04-08T14:38:39.658Z,10.35
2024-04-08T14:41:09.575Z,10.63
2024-04-08T14:43:43.964Z,9.32
2024-04-08T14:46:18.790Z,10.88
2024-04-08T14:48:46.350Z,10.80
2024-04-08T14:51:14.447Z,8.10
2024-04-08T14:53:45.333Z,8.45
2024-04-08T14:56:13.354Z,6.65
2024-04-08T14:58:45.417Z,11.65
2024-04-08T15:01:14.963Z,11.98
2024-04-08T15:03:41.996Z,12.00
2024-04-08T15:06:09.074Z,9.05
2024-04-08T15:08:38.010Z,14.02
2024-04-08T15:11:06.266Z,11.10
2024-04-08T15:13:33.080Z,8.48
2024-04-08T15:16:00.068Z,9.85
2024-04-08T15:18:27.186Z,15.25
2024-04-08T15:20:54.657Z,11.15
2024-04-08T15:23:21.920Z,10.98
2024-04-08T15:25:48.705Z,10.27
2024-04-08T15:28:15.473Z,11.88
2024-04-08T15:30:43.271Z,10.07
2024-04-08T15:33:10.501Z,11.13
2024-04-08T15:35:37.422Z,9.93
2024-04-08T15:38:04.515Z,16.50
2024-04-08T15:40:31.341Z,11.40
2024-04-08T15:42:58.104Z,12.95
2024-04-08T15:45:25.320Z,11.95
2024-04-08T15:47:52.391Z,12.30
2024-04-08T15:50:19.334Z,12.20
2024-04-08T15:52:46.398Z,12.48
2024-04-08T15:55:13.122Z,10.23
2024-04-08T15:57:40.287Z,15.18
2024-04-08T16:00:08.195Z,12.20
2024-04-08T16:02:35.135Z,13.18
2024-04-08T16:05:02.939Z,14.27
2024-04-08T16:07:31.565Z,11.02
2024-04-08T16:09:58.531Z,16.15
2024-04-08T16:12:26.477Z,11.52
2024-04-08T16:14:53.737Z,13.40
2024-04-08T16:17:20.495Z,16.05
2024-04-08T16:19:51.415Z,13.13
2024-04-08T16:22:20.383Z,15.10
2024-04-08T16:24:48.498Z,17.35
2024-04-08T16:27:15.581Z,16.63
2024-04-08T16:29:42.418Z,14.55
2024-04-08T16:32:09.153Z,15.35
2024-04-08T16:34:35.992Z,16.05
2024-04-08T16:37:04.440Z,16.58
2024-04-08T16:39:31.290Z,16.13
2024-04-08T16:41:58.173Z,14.88
2024-04-08T16:44:24.979Z,22.17
2024-04-08T16:46:52.323Z,17.15
2024-04-08T16:49:19.838Z,14.85
2024-04-08T16:54:14.294Z,14.90
2024-04-08T16:56:41.060Z,16.98
2024-04-08T16:59:08.149Z,16.33
2024-04-08T17:01:35.082Z,16.33
2024-04-08T17:04:05.841Z,17.83
2024-04-08T17:06:40.369Z,16.10
2024-04-08T17:09:08.434Z,15.60
2024-04-08T17:11:35.274Z,18.63
2024-04-08T17:14:02.235Z,15.35
2024-04-08T17:16:29.176Z,17.02
2024-04-08T17:18:56.260Z,17.15
2024-04-08T17:21:24.942Z,16.70
2024-04-08T17:23:51.804Z,15.00
2024-04-08T17:26:18.701Z,17.63
2024-04-08T17:28:46.182Z,16.27
2024-04-08T17:31:12.942Z,16.27
2024-04-08T17:33:39.803Z,17.70
2024-04-08T17:36:08.254Z,16.48
2024-04-08T17:38:39.925Z,16.83
2024-04-08T17:41:09.327Z,19.67
2024-04-08T17:43:41.076Z,18.67
2024-04-08T17:46:08.431Z,18.40
2024-04-08T17:48:37.044Z,17.83
2024-04-08T17:51:06.889Z,16.52
2024-04-08T17:53:36.752Z,16.50
2024-04-08T17:56:10.046Z,17.53
2024-04-08T17:58:38.322Z,17.58
2024-04-08T18:01:18.057Z,16.67
2024-04-08T18:03:45.481Z,16.52
2024-04-08T18:06:14.203Z,14.15
2024-04-08T18:08:45.138Z,16.75
2024-04-08T18:11:13.907Z,16.67
2024-04-08T18:13:41.880Z,17.40
2024-04-08T18:16:20.617Z,15.82
2024-04-08T18:18:52.266Z,16.33
2024-04-08T18:21:21.201Z,16.17
2024-04-08T18:23:50.496Z,20.02
2024-04-08T18:26:20.972Z,17.98
2024-04-08T18:31:23.737Z,17.52
2024-04-08T18:33:52.072Z,16.35
2024-04-08T18:36:19.504Z,17.33
2024-04-08T18:38:47.222Z,16.25
2024-04-08T18:41:19.342Z,16.75
2024-04-08T18:43:46.448Z,19.35
2024-04-08T18:46:24.041Z,17.50
2024-04-08T18:48:51.685Z,16.95
2024-04-08T18:51:18.886Z,16.85
2024-04-08T18:53:46.477Z,17.27
2024-04-08T18:56:13.672Z,18.20
2024-04-08T18:58:40.557Z,18.23
2024-04-08T19:01:13.636Z,18.98
2024-04-08T19:03:44.530Z,16.83
2024-04-08T19:06:12.752Z,16.10
2024-04-08T19:08:41.129Z,21.08
2024-04-08T19:11:08.214Z,22.70
2024-04-08T19:13:35.027Z,18.38
2024-04-08T19:16:04.419Z,22.33
2024-04-08T19:18:34.223Z,19.33
2024-04-08T19:21:07.076Z,22.05
2024-04-08T19:23:34.188Z,16.83
2024-04-08T19:26:02.402Z,18.23
2024-04-08T19:28:29.837Z,19.92
2024-04-08T19:30:57.292Z,20.35
2024-04-08T19:33:24.278Z,21.13
2024-04-08T19:35:56.311Z,20.80
2024-04-08T19:38:26.787Z,20.77
2024-04-08T19:43:26.959Z,22.70
2024-04-08T19:46:01.891Z,19.98
2024-04-08T19:48:33.928Z,18.73
2024-04-08T19:51:19.993Z,18.17
2024-04-08T19:53:51.047Z,20.80
2024-04-08T19:56:20.853Z,18.35
2024-04-08T19:58:48.275Z,19.05
2024-04-08T20:01:15.248Z,23.38
2024-04-08T20:03:43.023Z,18.98
2024-04-08T20:06:09.960Z,19.55
2024-04-08T20:08:37.281Z,20.63
2024-04-08T20:11:12.222Z,20.80
2024-04-08T20:13:43.087Z,20.85
2024-04-08T20:16:16.296Z,21.08
2024-04-08T20:18:43.941Z,24.90
2024-04-08T20:21:11.378Z,21.90
2024-04-08T20:23:38.268Z,21.88
2024-04-08T20:26:06.524Z,21.73
2024-04-08T20:28:33.572Z,23.80
2024-04-08T20:31:02.842Z,20.52
2024-04-08T20:33:30.137Z,21.55
2024-04-08T20:36:01.602Z,21.75
2024-04-08T20:38:29.686Z,21.08
2024-04-08T20:41:00.443Z,20.83
2024-04-08T20:43:27.139Z,23.40
2024-04-08T20:45:57.165Z,22.05
2024-04-08T20:48:24.111Z,20.65
2024-04-08T20:50:58.655Z,21.85
2024-04-08T20:53:26.322Z,25.23
2024-04-08T20:56:07.343Z,21.13
2024-04-08T20:58:35.074Z,21.95
2024-04-08T21:01:10.276Z,21.70
2024-04-08T21:03:39.008Z,23.33
2024-04-08T21:06:10.716Z,22.92
2024-04-08T21:08:42.485Z,22.40
2024-04-08T21:11:12.037Z,21.35
2024-04-08T21:13:39.430Z,23.50
2024-04-08T21:16:07.229Z,23.10
2024-04-08T21:18:35.614Z,22.40
2024-04-08T21:21:05.323Z,22.75
2024-04-08T21:23:33.264Z,24.30
2024-04-08T21:26:07.180Z,21.77
2024-04-08T21:28:33.909Z,22.55
2024-04-08T21:31:00.721Z,24.65
2024-04-08T21:33:27.998Z,21.33
2024-04-08T21:35:56.196Z,22.90
2024-04-08T21:38:23.325Z,23.15
2024-04-08T21:40:58.015Z,22.48
2024-04-08T21:43:25.256Z,20.40
2024-04-08T21:45:57.862Z,21.30
2024-04-08T21:48:25.607Z,21.05
2024-04-08T21:50:53.467Z,23.70
2024-04-08T21:53:27.880Z,23.60
2024-04-08T21:55:56.951Z,23.80
2024-04-08T21:58:24.159Z,22.75
2024-04-08T22:00:51.374Z,22.70
2024-04-08T22:03:18.421Z,26.27
2024-04-08T22:05:45.626Z,20.75
2024-04-08T22:08:12.545Z,20.45
2024-04-08T22:10:39.558Z,21.35
2024-04-08T22:13:07.672Z,20.17
2024-04-08T22:15:35.675Z,23.52
2024-04-08T22:18:03.146Z,21.80
2024-04-08T22:20:30.018Z,21.08
2024-04-08T22:22:56.842Z,20.38
2024-04-08T22:25:23.731Z,22.55
2024-04-08T22:27:50.496Z,20.70
2024-04-08T22:30:17.908Z,20.35
2024-04-08T22:32:45.409Z,22.25
2024-04-08T22:35:12.190Z,21.35
2024-04-08T22:37:39.179Z,23.02
2024-04-08T22:40:11.280Z,21.73
2024-04-08T22:42:38.125Z,20.35
2024-04-08T22:45:05.402Z,23.20
2024-04-08T22:47:32.507Z,22.73
2024-04-08T22:49:59.327Z,18.77
2024-04-08T22:52:26.166Z,19.13
2024-04-08T22:54:53.150Z,24.35
2024-04-08T22:57:19.863Z,23.63
2024-04-08T22:59:46.686Z,23.98
2024-04-08T23:02:13.577Z,21.05
2024-04-08T23:04:41.016Z,24.38
2024-04-08T23:07:08.028Z,23.85
2024-04-08T23:09:35.433Z,23.67
2024-04-08T23:12:02.405Z,22.73
2024-04-08T23:14:29.531Z,20.58
2024-04-08T23:16:56.531Z,23.13
2024-04-08T23:19:23.509Z,20.95
2024-04-08T23:21:50.322Z,22.55
2024-04-08T23:24:17.280Z,21.00
2024-04-08T23:26:44.015Z,20.13
2024-04-08T23:29:10.708Z,21.33
2024-04-08T23:31:37.519Z,20.25
2024-04-08T23:34:07.743Z,22.52
2024-04-08T23:36:34.936Z,23.20
2024-04-08T23:39:01.949Z,22.27
2024-04-08T23:41:28.745Z,21.42
2024-04-08T23:43:56.079Z,22.02
2024-04-08T23:46:22.812Z,22.17
2024-04-08T23:48:49.713Z,23.05
2024-04-08T23:51:16.694Z,21.73
2024-04-08T23:53:44.569Z,24.00
2024-04-08T23:56:11.361Z,21.10
2024-04-08T23:58:38.304Z,20.85
